Impacts TAF Board
For situational awareness. Not to be used for flight planning purposes.
IDs:

KGEG - Spokane Intl, WA, US

Issued at 1736 UTC 18 Sep 2018
Updated at 2057 UTC 18 Sep 2018
Potential Impact None Slight Moderate High
Time2053Z 18/21Z 18/22Z 18/23Z 19/00Z 19/01Z 19/02Z 19/03Z 19/04Z 19/05Z 19/06Z 19/07Z 19/08Z 19/09Z>>
Type OBS PRVL PRVL PRVL PRVL PRVL PRVL PRVL PRVL PRVL PRVL PRVL PRVL PRVL
VIS 10 >6 >6 >6 >6 >6 >6 >6 >6 >6 >6 >6 >6 >6
CIG -- -- -- -- -- -- -- -- -- -- -- -- -- --
Cover FEW FEW FEW FEW FEW FEW FEW SCT SCT SCT SCT SCT SCT SCT
FltCat VFR VFR VFR VFR VFR VFR VFR VFR VFR VFR VFR VFR VFR VFR
WX -- -- -- -- -- -- -- -- -- -- -- -- -- --
WDir VRB 310 310 310 310 310 310 VRB VRB VRB VRB VRB VRB VRB
WSpd 4 5 5 5 5 5 5 3 3 3 3 3 3 3
WGst -- -- -- -- -- -- -- -- -- -- -- -- -- --
Raw TAF
KGEG 181736Z 1818/1918 01005KT P6SM FEW030 FEW250
  FM182000 31005KT P6SM FEW060
  FM190300 VRB03KT P6SM SCT250
  FM191200 05004KT P6SM SCT200


Raw METAR
KGEG 182053Z VRB04KT 10SM FEW050 FEW250 19/M01 A3002 RMK AO2 SLP164 T01941006 58010
KGEG 181953Z VRB03KT 10SM FEW045 FEW250 18/02 A3004 RMK AO2 SLP169 T01830017
KGEG 181853Z 02004KT 10SM FEW040 FEW250 17/02 A3005 RMK AO2 SLP173 T01670017
KGEG 181753Z VRB04KT 10SM FEW035 FEW250 14/03 A3006 RMK AO2 SLP177 T01440033 10144 20044 50000

METAR Board
Radar Display
Forecast Discussion
For situational awareness. Not to be used for flight planning purposes.